< Typhoon 198016 1980 Season Typhoon 198018 >
Typhoon 198017 (THELMA)
General InformationTrack Information on Google MapsDetailed Wind Information || Disaster Info.ResourceGoogle EarthGE AnimationAtom FeedGeoJSON
Detalied Best Track (Time Zone = UTC)
Year Month Day Hour Lat. Long. Pressure (hPa) Wind (kt) Class Image Chart
1980 9 25 06 15.0 147.0 1004 0 2 -- Chart
1980 9 25 12 15.4 146.0 1004 0 2 -- Chart
1980 9 25 18 15.7 145.2 1004 0 2 -- Chart
1980 9 26 00 16.0 144.5 1002 0 2 -- Chart
1980 9 26 06 16.3 143.7 1000 0 2 -- Chart
1980 9 26 12 17.0 143.0 1000 0 2 -- Chart
1980 9 26 18 18.0 142.6 998 0 2 -- Chart
1980 9 27 00 19.0 142.5 998 0 2 -- Chart
1980 9 27 06 20.0 142.5 996 0 2 -- Chart
1980 9 27 12 21.5 142.5 996 0 2 -- Chart
1980 9 27 18 22.1 142.2 992 45 3 -- Chart
1980 9 28 00 21.9 141.9 992 45 3 -- Chart
1980 9 28 06 22.5 142.4 990 40 3 -- Chart
1980 9 28 12 24.3 142.8 990 40 3 -- Chart
1980 9 28 18 26.1 143.0 985 45 3 -- Chart
1980 9 29 00 26.8 143.0 985 45 3 -- Chart
1980 9 29 06 27.3 143.4 980 55 4 -- Chart
1980 9 29 12 29.1 144.1 980 55 4 -- Chart
1980 9 29 18 31.2 145.1 980 55 4 -- Chart
1980 9 30 00 33.7 146.8 980 55 4 -- Chart
1980 9 30 06 37.2 150.0 975 50 4 -- Chart
1980 9 30 12 40.9 154.4 972 0 6 -- Chart
1980 9 30 18 44.0 157.0 972 0 6 -- Chart
1980 10 1 00 46.0 159.0 968 0 6 -- Chart
1980 10 1 06 49.0 163.0 964 0 6 -- Chart
1980 10 1 12 50.0 165.0 960 0 6 -- Chart
1980 10 1 18 51.0 169.0 960 0 6 -- Chart
1980 10 2 00 51.0 172.0 960 0 6 -- Chart
1980 10 2 06 51.0 176.0 960 0 6 -- Chart
1980 10 2 12 50.0 180.0 964 0 6 -- Chart
1980 10 2 18 50.0 186.0 968 0 6 -- Chart
Japan Meteorological Agency Best Track Data | Correction Date : 1992-10-21
< Typhoon 198016 1980 Season Typhoon 198018 >

Help